• Join FlightAware (Why Join?)
  • Login
  • US Flag 
07:09PM EST


 

Airport Tracker/Info


-or-


 

Live Flight TrackerFlight Track Log ✈ ZK-PBD ✈ 02-May-2012 ✈ NZWN / WLG - YBBN / BNE

Flight Track Log - Related Links

Times and Time Zones

All times are in EDT time to prevent confusion due to time zone crossing. See the ZK-PBD flight status page for this flight to view local times or setup timezone preferences in your user account.

Time Position Orientation Groundspeed Altitude Reporting Facility
EDT Latitude Longitude Course Direction KTS MPH feet Rate Location/Type
02:07PM -41.3113 174.7724 303° West  Level FlightAware Approximate
02:08PM -41.2473 174.6408 303° West  Level FlightAware Approximate
02:09PM -41.1832 174.5094 303° West  Level FlightAware Approximate
02:10PM -41.1190 174.3784 303° West  Level FlightAware Approximate
02:11PM -41.0546 174.2476 303° West  Level FlightAware Approximate
02:12PM -40.9901 174.1170 303° West  Level FlightAware Approximate
02:13PM -40.9254 173.9867 303° West  Level FlightAware Approximate
02:14PM -40.8606 173.8566 303° West  Level FlightAware Approximate
02:15PM -40.7956 173.7269 303° West  Level FlightAware Approximate
02:16PM -40.7305 173.5973 304° West  Level FlightAware Approximate
02:17PM -40.6652 173.4680 304° West  Level FlightAware Approximate
02:18PM -40.5998 173.3390 304° West  Level FlightAware Approximate
02:19PM -40.5343 173.2102 304° West  Level FlightAware Approximate
02:20PM -40.4686 173.0817 304° West  Level FlightAware Approximate
02:21PM -40.4027 172.9534 304° West  Level FlightAware Approximate
02:22PM -40.3368 172.8254 304° West  Level FlightAware Approximate
02:23PM -40.2706 172.6976 304° West  Level FlightAware Approximate
02:24PM -40.2044 172.5701 304° West  Level FlightAware Approximate
02:25PM -40.1380 172.4428 304° West  Level FlightAware Approximate
02:26PM -40.0714 172.3158 304° West  Level FlightAware Approximate
02:27PM -40.0048 172.1890 304° West  Level FlightAware Approximate
02:28PM -39.9380 172.0624 304° West  Level FlightAware Approximate
02:29PM -39.8710 171.9361 305° West  Level FlightAware Approximate
02:30PM -39.8039 171.8101 305° West  Level FlightAware Approximate
02:31PM -39.7367 171.6843 305° West  Level FlightAware Approximate
02:32PM -39.6693 171.5588 305° West  Level FlightAware Approximate
02:33PM -39.6018 171.4335 305° West  Level FlightAware Approximate
02:34PM -39.5342 171.3084 305° West  Level FlightAware Approximate
02:35PM -39.4692 171.1812 305° West  Level FlightAware Approximate
02:36PM -39.4012 171.0567 305° West  Level FlightAware Approximate
02:37PM -39.3331 170.9324 305° West  Level FlightAware Approximate
02:38PM -39.2649 170.8083 305° West  Level FlightAware Approximate
02:39PM -39.1966 170.6845 305° West  Level FlightAware Approximate
02:40PM -39.1282 170.5609 305° West  Level FlightAware Approximate
02:41PM -39.0596 170.4376 306° West  Level FlightAware Approximate
02:42PM -38.9908 170.3145 306° West  Level FlightAware Approximate
02:43PM -38.9220 170.1916 306° West  Level FlightAware Approximate
02:44PM -38.8530 170.0690 306° West  Level FlightAware Approximate
02:45PM -38.7839 169.9466 306° West  Level FlightAware Approximate
02:46PM -38.7147 169.8245 306° West  Level FlightAware Approximate
02:47PM -38.6453 169.7026 306° West  Level FlightAware Approximate
02:48PM -38.5758 169.5809 306° West  Level FlightAware Approximate
02:49PM -38.5062 169.4595 306° West  Level FlightAware Approximate
02:50PM -38.4365 169.3383 306° West  Level FlightAware Approximate
02:51PM -38.3666 169.2173 306° West  Level FlightAware Approximate
02:52PM -38.2966 169.0966 306° West  Level FlightAware Approximate
02:53PM -38.2265 168.9761 306° West  Level FlightAware Approximate
02:54PM -38.1563 168.8558 306° West  Level FlightAware Approximate
02:55PM -38.0860 168.7358 307° West  Level FlightAware Approximate
02:56PM -38.0155 168.6160 307° West  Level FlightAware Approximate
02:57PM -37.9449 168.4964 307° West  Level FlightAware Approximate
02:58PM -37.8742 168.3770 307° West  Level FlightAware Approximate
02:59PM -37.8033 168.2579 307° West  Level FlightAware Approximate
03:00PM -37.7324 168.1391 307° West  Level FlightAware Approximate
03:01PM -37.6613 168.0204 307° West  Level FlightAware Approximate
03:02PM -37.5901 167.9019 307° West  Level FlightAware Approximate
03:03PM -37.5188 167.7837 307° West  Level FlightAware Approximate
03:04PM -37.4474 167.6658 307° West  Level FlightAware Approximate
03:05PM -37.3758 167.5480 307° West  Level FlightAware Approximate
03:06PM -37.3042 167.4305 307° West  Level FlightAware Approximate
03:07PM -37.2324 167.3132 307° West  Level FlightAware Approximate
03:08PM -37.1605 167.1961 307° West  Level FlightAware Approximate
03:09PM -37.0885 167.0792 308° West  Level FlightAware Approximate
03:10PM -37.0163 166.9626 308° West  Level FlightAware Approximate
03:11PM -36.9441 166.8462 308° West  Level FlightAware Approximate
03:12PM -36.8718 166.7300 308° West  Level FlightAware Approximate
03:13PM -36.7993 166.6140 308° West  Level FlightAware Approximate
03:14PM -36.7267 166.4982 308° West  Level FlightAware Approximate
03:15PM -36.6540 166.3827 308° West  Level FlightAware Approximate
03:16PM -36.5812 166.2674 308° West  Level FlightAware Approximate
03:17PM -36.5083 166.1523 308° West  Level FlightAware Approximate
03:18PM -36.4353 166.0374 308° West  Level FlightAware Approximate
03:19PM -36.3622 165.9227 308° West  Level FlightAware Approximate
03:20PM -36.2889 165.8083 308° West  Level FlightAware Approximate
03:21PM -36.2156 165.6940 308° West  Level FlightAware Approximate
03:22PM -36.1421 165.5800 308° West  Level FlightAware Approximate
03:23PM -36.0686 165.4662 308° West  Level FlightAware Approximate
03:24PM -35.9949 165.3526 309° West  Level FlightAware Approximate
03:25PM -35.9211 165.2392 309° West  Level FlightAware Approximate
03:26PM -35.8472 165.1261 309° West  Level FlightAware Approximate
03:27PM -35.7732 165.0131 309° West  Level FlightAware Approximate
03:28PM -35.6991 164.9003 309° West  Level FlightAware Approximate
03:29PM -35.6249 164.7878 309° West  Level FlightAware Approximate
03:30PM -35.5506 164.6755 309° West  Level FlightAware Approximate
03:31PM -35.4762 164.5633 309° West  Level FlightAware Approximate
03:32PM -35.4017 164.4514 309° West  Level FlightAware Approximate
03:33PM -35.3271 164.3397 309° West  Level FlightAware Approximate
03:34PM -35.2523 164.2282 309° West  Level FlightAware Approximate
03:35PM -35.1775 164.1169 309° West  Level FlightAware Approximate
03:36PM -35.1026 164.0058 309° West  Level FlightAware Approximate
03:37PM -35.0276 163.8949 309° West  Level FlightAware Approximate
03:38PM -34.9524 163.7842 309° West  Level FlightAware Approximate
03:39PM -34.8772 163.6737 309° West  Level FlightAware Approximate
03:44PM -34.3521 162.9120 310° West 40,000  Level Aus ATC (Calculated)
03:46PM -34.2225 162.7265 310° West 40,000  Level Aus ATC (Calculated)
03:47PM -34.1400 162.6089 310° West 40,000  Level Aus ATC (Calculated)
03:49PM -34.0037 162.4123 310° West  Level FlightAware Approximate
03:50PM -33.9299 162.3063 310° West  Level FlightAware Approximate
03:55PM -33.4564 161.6494 310° West 40,000  Level Aus ATC (Calculated)
03:57PM -33.2780 161.4032 311° West 40,000  Level Aus ATC (Calculated)
03:59PM -33.1159 161.1809 311° West 40,000  Level Aus ATC (Calculated)
04:01PM -33.0188 161.0457 311° West  Level FlightAware Approximate
04:02PM -32.9441 160.9418 311° West  Level FlightAware Approximate
04:03PM -32.8692 160.8382 311° West  Level FlightAware Approximate
04:04PM -32.7943 160.7347 311° West  Level FlightAware Approximate
04:05PM -32.7193 160.6314 311° West  Level FlightAware Approximate
04:10PM -32.2772 160.0519 311° West 40,000  Level Aus ATC (Calculated)
04:12PM -32.1352 159.8593 311° West  Level FlightAware Approximate
04:13PM -32.0597 159.7572 311° West  Level FlightAware Approximate
04:14PM -31.9841 159.6554 311° West  Level FlightAware Approximate
04:15PM -31.9084 159.5537 311° West  Level FlightAware Approximate
04:16PM -31.8327 159.4521 311° West  Level FlightAware Approximate
04:17PM -31.7568 159.3507 311° West  Level FlightAware Approximate
04:18PM -31.6809 159.2495 312° West  Level FlightAware Approximate
04:23PM -31.2277 158.6732 311° West 40,000  Level Aus ATC (Calculated)
04:28PM -30.8386 158.1631 312° West 40,000  Level Aus ATC (Calculated)
04:29PM -30.7498 158.0348 312° West  Level FlightAware Approximate
04:30PM -30.6777 157.9309 313° West  Level FlightAware Approximate
04:31PM -30.6055 157.8272 314° West  Level FlightAware Approximate
04:32PM -30.5332 157.7236 315° West  Level FlightAware Approximate
04:33PM -30.4608 157.6202 318° Northwest  Level FlightAware Approximate
04:39PM -30.2544 157.4031 313° West 405 466 40,400  Level Aus ATC (RADAR)
04:40PM -30.1819 157.3124 312° West 406 467 40,400  Level Aus ATC (RADAR)
04:41PM -30.1041 157.2128 311° West 405 466 40,400  Level Aus ATC (RADAR)
04:42PM -30.0104 157.0863 314° West 404 465 40,400  Level Aus ATC (RADAR)
04:43PM -29.9233 156.9810 315° West 407 468 40,400  Level Aus ATC (RADAR)
04:44PM -29.8405 156.8861 312° West 406 467 40,400  Level Aus ATC (RADAR)
04:45PM -29.7439 156.7635 312° West 402 463 40,400 -60 Level Aus ATC (RADAR)
04:47PM -29.6348 156.6256 313° West 398 458 40,300 -60 Descending Aus ATC (RADAR)
04:48PM -29.5512 156.5220 313° West 396 456 40,300  Level Aus ATC (RADAR)
04:49PM -29.4558 156.4025 313° West 396 456 40,300  Level Aus ATC (RADAR)
04:50PM -29.3733 156.2997 313° West 397 457 40,300  Level Aus ATC (RADAR)
04:52PM -29.2453 156.1408 313° West 399 459 40,300  Level Aus ATC (RADAR)
04:53PM -29.1612 156.0368 313° West 400 460 40,300  Level Aus ATC (RADAR)
04:54PM -29.0768 155.9325 313° West 402 463 40,300  Level Aus ATC (RADAR)
04:55PM -28.9990 155.8366 313° West 402 463 40,300  Level Aus ATC (RADAR)
04:56PM -28.9136 155.7333 313° West 405 466 40,300  Level Aus ATC (RADAR)
04:57PM -28.8301 155.6301 313° West 399 459 40,300  Level Aus ATC (RADAR)
04:58PM -28.7455 155.5277 313° West 401 461 40,300  Level Aus ATC (RADAR)
04:59PM -28.6685 155.4334 313° West 397 457 40,300  Level Aus ATC (RADAR)
05:01PM -28.5260 155.2612 313° West 403 464 40,300  Level Aus ATC (RADAR)
05:02PM -28.4611 155.1831 313° West 399 459 40,300  Level Aus ATC (RADAR)
05:02PM -28.4024 155.1124 313° West 403 464 40,300  Level Aus ATC (RADAR)
05:03PM -28.3572 155.0577 313° West 400 460 40,300  Level Aus ATC (RADAR)
05:04PM -28.3116 155.0028 313° West 400 460 40,300  Level Aus ATC (RADAR)
05:04PM -28.2727 154.9559 313° West 398 458 40,300 -120 Level Aus ATC (RADAR)
05:05PM -28.2271 154.9012 313° West 399 459 40,200 -1,800 Descending Aus ATC (RADAR)
05:06PM -28.1242 154.7781 313° West 400 460 36,900 -2,820 Descending Aus ATC (RADAR)
05:07PM -28.0463 154.6845 314° West 409 471 33,700 -3,000 Descending Aus ATC (RADAR)
05:08PM -27.9865 154.6135 313° West 409 471 31,700 -2,640 Descending Aus ATC (RADAR)
05:08PM -27.9411 154.5591 314° West 403 464 30,200 -2,520 Descending Aus ATC (RADAR)
05:09PM -27.8962 154.5061 314° West 396 456 28,800 -2,400 Descending Aus ATC (RADAR)
05:09PM -27.8583 154.4612 313° West 390 449 27,600 -2,400 Descending Aus ATC (RADAR)
05:10PM -27.8152 154.4098 314° West 384 442 26,200 -2,340 Descending Aus ATC (RADAR)
05:12PM -27.7076 154.2819 314° West 366 421 22,800 -2,280 Descending Aus ATC (RADAR)
05:12PM -27.6495 154.2136 314° West 356 410 20,900 -2,160 Descending Aus ATC (RADAR)
05:13PM -27.6152 154.1732 314° West 352 405 19,900 -2,160 Descending Aus ATC (RADAR)
05:13PM -27.5758 154.1268 314° West 349 402 18,600 -1,620 Descending Aus ATC (RADAR)
05:14PM -27.5373 154.0817 296° West 332 382 18,100 -1,080 Descending Aus ATC (RADAR)
05:15PM -27.5125 154.0244 280° West 306 352 17,300 -1,500 Descending Aus ATC (RADAR)
05:16PM -27.4908 153.8854 281° West 295 339 14,900 -1,680 Descending Aus ATC (RADAR)
05:17PM -27.4820 153.8324 281° West 294 338 13,900 -1,680 Descending Aus ATC (RADAR)
05:18PM -27.4706 153.7637 287° West 295 339 12,700 -1,380 Descending Aus ATC (RADAR)
05:18PM -27.4525 153.6982 301° West 286 329 11,900 -1,200 Descending Aus ATC (RADAR)
05:19PM -27.4286 153.6527 300° West 284 327 11,100 -1,500 Descending Aus ATC (RADAR)
05:19PM -27.4051 153.6072 300° West 284 327 10,200 -1,680 Descending Aus ATC (RADAR)
05:20PM -27.3753 153.5486 303° West 286 329 8,900 -1,680 Descending Aus ATC (RADAR)
05:22PM -27.3066 153.4306 308° West 283 326 6,400 -1,560 Descending Aus ATC (RADAR)
05:23PM -27.2576 153.3613 308° West 280 322 4,900 -1,140 Descending Aus ATC (RADAR)
05:24PM -27.2194 153.3067 288° West 257 296 4,400 -540 Descending Aus ATC (RADAR)
05:24PM -27.2080 153.2667 248° West 230 265 4,200 -840 Descending Aus ATC (RADAR)
05:25PM -27.2255 153.2173 206° Southwest 210 242 3,300 -1,020 Descending Aus ATC (RADAR)
05:27PM -27.3278 153.1613 208° Southwest 139 160 1,100 -900 Descending Aus ATC (RADAR)
05:28PM -27.3430 153.1522 207° Southwest 125 144 800 -660 Descending Aus ATC (RADAR)
05:28PM -27.3616 153.1414 207° Southwest 129 148 400 -720 Descending Aus ATC (RADAR)